sensor_id;sensor_type;location;lat;lon;timestamp;P1;durP1;ratioP1;P2;durP2;ratioP2
6432;SDS011;3249;42.690;23.260;2022-10-26T00:01:05;14.73;;;7.67;;
6432;SDS011;3249;42.690;23.260;2022-10-26T00:03:39;20.27;;;12.67;;
6432;SDS011;3249;42.690;23.260;2022-10-26T00:06:09;81.10;;;44.80;;
6432;SDS011;3249;42.690;23.260;2022-10-26T00:08:42;82.13;;;46.90;;
6432;SDS011;3249;42.690;23.260;2022-10-26T00:11:09;55.00;;;32.13;;
6432;SDS011;3249;42.690;23.260;2022-10-26T00:13:35;45.37;;;24.13;;
6432;SDS011;3249;42.690;23.260;2022-10-26T00:16:06;39.67;;;25.20;;
6432;SDS011;3249;42.690;23.260;2022-10-26T00:18:33;42.50;;;26.13;;
6432;SDS011;3249;42.690;23.260;2022-10-26T00:21:05;32.63;;;19.97;;
6432;SDS011;3249;42.690;23.260;2022-10-26T00:23:31;47.00;;;27.40;;
6432;SDS011;3249;42.690;23.260;2022-10-26T00:25:57;47.60;;;28.53;;
6432;SDS011;3249;42.690;23.260;2022-10-26T00:28:23;14.43;;;8.77;;
6432;SDS011;3249;42.690;23.260;2022-10-26T00:30:49;44.20;;;23.33;;
6432;SDS011;3249;42.690;23.260;2022-10-26T00:33:14;62.50;;;36.37;;
6432;SDS011;3249;42.690;23.260;2022-10-26T00:35:40;43.67;;;25.43;;
6432;SDS011;3249;42.690;23.260;2022-10-26T00:38:06;59.90;;;34.00;;
6432;SDS011;3249;42.690;23.260;2022-10-26T00:40:31;28.23;;;13.13;;
6432;SDS011;3249;42.690;23.260;2022-10-26T00:42:57;33.93;;;19.07;;
6432;SDS011;3249;42.690;23.260;2022-10-26T00:45:23;45.83;;;24.47;;
6432;SDS011;3249;42.690;23.260;2022-10-26T00:48:04;22.63;;;13.77;;
6432;SDS011;3249;42.690;23.260;2022-10-26T00:50:32;23.93;;;14.20;;
6432;SDS011;3249;42.690;23.260;2022-10-26T00:53:01;8.33;;;6.97;;
6432;SDS011;3249;42.690;23.260;2022-10-26T00:55:30;19.53;;;8.87;;
6432;SDS011;3249;42.690;23.260;2022-10-26T00:57:59;17.97;;;9.70;;
6432;SDS011;3249;42.690;23.260;2022-10-26T01:00:26;17.83;;;9.03;;
6432;SDS011;3249;42.690;23.260;2022-10-26T01:02:51;16.10;;;9.27;;
6432;SDS011;3249;42.690;23.260;2022-10-26T01:05:21;12.67;;;8.37;;
6432;SDS011;3249;42.690;23.260;2022-10-26T01:07:48;20.23;;;8.50;;
6432;SDS011;3249;42.690;23.260;2022-10-26T01:10:15;13.83;;;8.17;;
6432;SDS011;3249;42.690;23.260;2022-10-26T01:12:42;11.37;;;7.80;;
6432;SDS011;3249;42.690;23.260;2022-10-26T01:15:09;10.40;;;7.80;;
6432;SDS011;3249;42.690;23.260;2022-10-26T01:23:24;11.03;;;8.03;;
6432;SDS011;3249;42.690;23.260;2022-10-26T01:28:55;14.67;;;6.47;;
6432;SDS011;3249;42.690;23.260;2022-10-26T01:31:49;14.90;;;7.70;;
6432;SDS011;3249;42.690;23.260;2022-10-26T01:34:46;11.30;;;6.23;;
6432;SDS011;3249;42.690;23.260;2022-10-26T01:37:28;8.87;;;6.40;;
6432;SDS011;3249;42.690;23.260;2022-10-26T01:40:01;12.33;;;6.90;;
6432;SDS011;3249;42.690;23.260;2022-10-26T01:42:31;8.67;;;7.60;;
6432;SDS011;3249;42.690;23.260;2022-10-26T01:45:00;10.13;;;7.40;;
6432;SDS011;3249;42.690;23.260;2022-10-26T01:47:29;11.53;;;6.57;;
6432;SDS011;3249;42.690;23.260;2022-10-26T01:49:57;7.90;;;6.63;;
6432;SDS011;3249;42.690;23.260;2022-10-26T01:52:25;13.67;;;7.80;;
6432;SDS011;3249;42.690;23.260;2022-10-26T01:54:50;10.00;;;7.10;;
6432;SDS011;3249;42.690;23.260;2022-10-26T01:57:17;16.03;;;7.63;;
6432;SDS011;3249;42.690;23.260;2022-10-26T02:15:21;12.67;;;6.87;;
6432;SDS011;3249;42.690;23.260;2022-10-26T02:17:59;10.83;;;7.27;;
6432;SDS011;3249;42.690;23.260;2022-10-26T02:20:34;12.20;;;7.80;;
6432;SDS011;3249;42.690;23.260;2022-10-26T02:23:03;15.10;;;7.37;;
6432;SDS011;3249;42.690;23.260;2022-10-26T02:25:31;13.90;;;7.80;;
6432;SDS011;3249;42.690;23.260;2022-10-26T02:28:03;10.97;;;7.57;;
6432;SDS011;3249;42.690;23.260;2022-10-26T02:30:32;13.83;;;7.77;;
6432;SDS011;3249;42.690;23.260;2022-10-26T02:32:59;16.17;;;7.63;;
6432;SDS011;3249;42.690;23.260;2022-10-26T02:35:29;10.77;;;7.10;;
6432;SDS011;3249;42.690;23.260;2022-10-26T02:37:56;11.20;;;7.10;;
6432;SDS011;3249;42.690;23.260;2022-10-26T02:40:25;9.50;;;6.60;;
6432;SDS011;3249;42.690;23.260;2022-10-26T02:42:53;11.53;;;6.93;;
6432;SDS011;3249;42.690;23.260;2022-10-26T02:45:25;9.77;;;7.70;;
6432;SDS011;3249;42.690;23.260;2022-10-26T02:47:53;8.63;;;7.07;;
6432;SDS011;3249;42.690;23.260;2022-10-26T02:50:20;16.67;;;7.87;;
6432;SDS011;3249;42.690;23.260;2022-10-26T02:55:45;12.33;;;8.17;;
6432;SDS011;3249;42.690;23.260;2022-10-26T02:58:15;9.00;;;7.57;;
6432;SDS011;3249;42.690;23.260;2022-10-26T03:00:44;14.07;;;8.83;;
6432;SDS011;3249;42.690;23.260;2022-10-26T03:03:10;17.13;;;9.50;;
6432;SDS011;3249;42.690;23.260;2022-10-26T03:05:39;14.60;;;8.57;;
6432;SDS011;3249;42.690;23.260;2022-10-26T03:08:06;15.27;;;9.07;;
6432;SDS011;3249;42.690;23.260;2022-10-26T03:10:31;8.43;;;7.63;;
6432;SDS011;3249;42.690;23.260;2022-10-26T03:12:59;11.00;;;6.97;;
6432;SDS011;3249;42.690;23.260;2022-10-26T03:15:24;16.33;;;8.20;;
6432;SDS011;3249;42.690;23.260;2022-10-26T03:17:49;15.57;;;8.00;;
6432;SDS011;3249;42.690;23.260;2022-10-26T03:20:15;13.53;;;7.67;;
6432;SDS011;3249;42.690;23.260;2022-10-26T03:22:40;11.03;;;7.80;;
6432;SDS011;3249;42.690;23.260;2022-10-26T03:25:06;17.53;;;9.67;;
6432;SDS011;3249;42.690;23.260;2022-10-26T03:27:31;17.43;;;12.03;;
6432;SDS011;3249;42.690;23.260;2022-10-26T03:29:57;13.80;;;8.67;;
6432;SDS011;3249;42.690;23.260;2022-10-26T03:32:22;26.33;;;10.30;;
6432;SDS011;3249;42.690;23.260;2022-10-26T03:34:48;11.90;;;9.23;;
6432;SDS011;3249;42.690;23.260;2022-10-26T03:37:13;13.57;;;11.37;;
6432;SDS011;3249;42.690;23.260;2022-10-26T03:39:38;13.43;;;8.80;;
6432;SDS011;3249;42.690;23.260;2022-10-26T03:42:04;14.33;;;8.43;;
6432;SDS011;3249;42.690;23.260;2022-10-26T03:44:29;14.33;;;8.37;;
6432;SDS011;3249;42.690;23.260;2022-10-26T03:46:55;19.80;;;10.13;;
6432;SDS011;3249;42.690;23.260;2022-10-26T03:49:20;17.47;;;10.27;;
6432;SDS011;3249;42.690;23.260;2022-10-26T03:51:45;20.97;;;9.57;;
6432;SDS011;3249;42.690;23.260;2022-10-26T03:54:11;14.00;;;9.33;;
6432;SDS011;3249;42.690;23.260;2022-10-26T03:56:36;14.47;;;9.97;;
6432;SDS011;3249;42.690;23.260;2022-10-26T03:59:02;15.60;;;9.90;;
6432;SDS011;3249;42.690;23.260;2022-10-26T04:01:27;21.43;;;10.57;;
6432;SDS011;3249;42.690;23.260;2022-10-26T04:03:53;17.20;;;9.53;;
6432;SDS011;3249;42.690;23.260;2022-10-26T04:06:18;21.50;;;9.20;;
6432;SDS011;3249;42.690;23.260;2022-10-26T04:08:43;15.53;;;9.27;;
6432;SDS011;3249;42.690;23.260;2022-10-26T04:11:09;15.60;;;9.20;;
6432;SDS011;3249;42.690;23.260;2022-10-26T04:13:34;22.60;;;9.47;;
6432;SDS011;3249;42.690;23.260;2022-10-26T04:16:00;19.27;;;10.33;;
6432;SDS011;3249;42.690;23.260;2022-10-26T04:18:25;17.17;;;9.30;;
6432;SDS011;3249;42.690;23.260;2022-10-26T04:20:51;13.07;;;7.70;;
6432;SDS011;3249;42.690;23.260;2022-10-26T04:23:16;22.97;;;11.47;;
6432;SDS011;3249;42.690;23.260;2022-10-26T04:25:43;12.20;;;7.93;;
6432;SDS011;3249;42.690;23.260;2022-10-26T04:28:09;14.10;;;9.13;;
6432;SDS011;3249;42.690;23.260;2022-10-26T04:30:36;13.13;;;9.07;;
6432;SDS011;3249;42.690;23.260;2022-10-26T04:33:02;18.30;;;8.60;;
6432;SDS011;3249;42.690;23.260;2022-10-26T04:35:29;17.87;;;9.93;;
6432;SDS011;3249;42.690;23.260;2022-10-26T04:37:58;10.73;;;8.13;;
6432;SDS011;3249;42.690;23.260;2022-10-26T04:40:24;10.53;;;7.60;;
6432;SDS011;3249;42.690;23.260;2022-10-26T04:42:51;10.97;;;7.30;;
6432;SDS011;3249;42.690;23.260;2022-10-26T04:45:17;10.73;;;8.00;;
6432;SDS011;3249;42.690;23.260;2022-10-26T04:47:42;11.13;;;8.07;;
6432;SDS011;3249;42.690;23.260;2022-10-26T04:50:08;10.50;;;7.13;;
6432;SDS011;3249;42.690;23.260;2022-10-26T04:52:35;21.10;;;9.13;;
6432;SDS011;3249;42.690;23.260;2022-10-26T04:55:00;20.97;;;9.47;;
6432;SDS011;3249;42.690;23.260;2022-10-26T04:57:29;15.27;;;8.53;;
6432;SDS011;3249;42.690;23.260;2022-10-26T04:59:56;11.77;;;6.93;;
6432;SDS011;3249;42.690;23.260;2022-10-26T05:02:21;20.73;;;8.83;;
6432;SDS011;3249;42.690;23.260;2022-10-26T05:04:47;16.80;;;8.20;;
6432;SDS011;3249;42.690;23.260;2022-10-26T05:07:12;17.70;;;7.63;;
6432;SDS011;3249;42.690;23.260;2022-10-26T05:09:37;18.57;;;7.93;;
6432;SDS011;3249;42.690;23.260;2022-10-26T05:12:03;26.03;;;10.37;;
6432;SDS011;3249;42.690;23.260;2022-10-26T05:14:29;10.83;;;6.73;;
6432;SDS011;3249;42.690;23.260;2022-10-26T05:16:54;17.33;;;9.07;;
6432;SDS011;3249;42.690;23.260;2022-10-26T05:19:20;15.37;;;8.70;;
6432;SDS011;3249;42.690;23.260;2022-10-26T05:21:45;12.40;;;7.97;;
6432;SDS011;3249;42.690;23.260;2022-10-26T05:24:11;15.03;;;7.57;;
6432;SDS011;3249;42.690;23.260;2022-10-26T05:26:36;17.23;;;8.70;;
6432;SDS011;3249;42.690;23.260;2022-10-26T05:29:02;14.87;;;9.70;;
6432;SDS011;3249;42.690;23.260;2022-10-26T05:31:27;12.27;;;8.73;;
6432;SDS011;3249;42.690;23.260;2022-10-26T05:33:52;13.83;;;8.70;;
6432;SDS011;3249;42.690;23.260;2022-10-26T05:36:18;12.00;;;8.03;;
6432;SDS011;3249;42.690;23.260;2022-10-26T05:38:44;13.63;;;6.87;;
6432;SDS011;3249;42.690;23.260;2022-10-26T05:41:09;10.70;;;6.73;;
6432;SDS011;3249;42.690;23.260;2022-10-26T05:43:35;14.43;;;7.57;;
6432;SDS011;3249;42.690;23.260;2022-10-26T05:46:00;11.13;;;7.70;;
6432;SDS011;3249;42.690;23.260;2022-10-26T05:48:25;9.57;;;6.97;;
6432;SDS011;3249;42.690;23.260;2022-10-26T05:50:51;15.37;;;7.83;;
6432;SDS011;3249;42.690;23.260;2022-10-26T05:53:16;9.83;;;8.60;;
6432;SDS011;3249;42.690;23.260;2022-10-26T05:55:42;12.33;;;8.43;;
6432;SDS011;3249;42.690;23.260;2022-10-26T05:58:11;10.77;;;8.03;;
6432;SDS011;3249;42.690;23.260;2022-10-26T06:06:07;14.53;;;9.17;;
6432;SDS011;3249;42.690;23.260;2022-10-26T06:08:37;12.13;;;8.27;;
6432;SDS011;3249;42.690;23.260;2022-10-26T06:11:03;9.20;;;6.90;;
6432;SDS011;3249;42.690;23.260;2022-10-26T06:13:29;14.47;;;8.47;;
6432;SDS011;3249;42.690;23.260;2022-10-26T06:19:00;11.00;;;7.53;;
6432;SDS011;3249;42.690;23.260;2022-10-26T06:24:50;13.17;;;8.40;;
6432;SDS011;3249;42.690;23.260;2022-10-26T06:30:05;14.17;;;7.40;;
6432;SDS011;3249;42.690;23.260;2022-10-26T06:32:34;11.97;;;7.03;;
6432;SDS011;3249;42.690;23.260;2022-10-26T06:37:52;7.40;;;6.70;;
6432;SDS011;3249;42.690;23.260;2022-10-26T06:40:19;8.97;;;7.30;;
6432;SDS011;3249;42.690;23.260;2022-10-26T06:42:46;10.30;;;6.33;;
6432;SDS011;3249;42.690;23.260;2022-10-26T06:45:12;11.87;;;6.97;;
6432;SDS011;3249;42.690;23.260;2022-10-26T06:47:52;7.30;;;6.60;;
6432;SDS011;3249;42.690;23.260;2022-10-26T06:50:32;12.13;;;6.50;;
6432;SDS011;3249;42.690;23.260;2022-10-26T06:55:42;8.77;;;7.13;;
6432;SDS011;3249;42.690;23.260;2022-10-26T06:58:13;9.13;;;5.53;;
6432;SDS011;3249;42.690;23.260;2022-10-26T07:00:42;10.03;;;6.67;;
6432;SDS011;3249;42.690;23.260;2022-10-26T07:03:08;8.03;;;6.77;;
6432;SDS011;3249;42.690;23.260;2022-10-26T07:05:34;6.83;;;6.13;;
6432;SDS011;3249;42.690;23.260;2022-10-26T07:07:59;7.27;;;5.67;;
6432;SDS011;3249;42.690;23.260;2022-10-26T07:10:25;10.87;;;6.23;;
6432;SDS011;3249;42.690;23.260;2022-10-26T07:12:50;13.43;;;7.03;;
6432;SDS011;3249;42.690;23.260;2022-10-26T07:15:16;7.00;;;6.30;;
6432;SDS011;3249;42.690;23.260;2022-10-26T07:17:45;8.97;;;6.03;;
6432;SDS011;3249;42.690;23.260;2022-10-26T07:20:12;9.90;;;6.13;;
6432;SDS011;3249;42.690;23.260;2022-10-26T07:22:38;6.47;;;5.83;;
6432;SDS011;3249;42.690;23.260;2022-10-26T07:25:04;11.83;;;6.73;;
6432;SDS011;3249;42.690;23.260;2022-10-26T07:27:30;7.47;;;5.77;;
6432;SDS011;3249;42.690;23.260;2022-10-26T07:29:56;9.20;;;5.70;;
6432;SDS011;3249;42.690;23.260;2022-10-26T07:32:21;6.13;;;5.50;;
6432;SDS011;3249;42.690;23.260;2022-10-26T07:34:47;6.63;;;5.47;;
6432;SDS011;3249;42.690;23.260;2022-10-26T07:37:12;6.77;;;6.07;;
6432;SDS011;3249;42.690;23.260;2022-10-26T07:39:38;8.93;;;6.33;;
6432;SDS011;3249;42.690;23.260;2022-10-26T07:42:03;6.20;;;5.60;;
6432;SDS011;3249;42.690;23.260;2022-10-26T07:44:29;7.73;;;6.53;;
6432;SDS011;3249;42.690;23.260;2022-10-26T07:46:54;8.73;;;6.23;;
6432;SDS011;3249;42.690;23.260;2022-10-26T07:49:19;7.20;;;5.83;;
6432;SDS011;3249;42.690;23.260;2022-10-26T07:51:45;7.03;;;6.30;;
6432;SDS011;3249;42.690;23.260;2022-10-26T07:54:11;12.00;;;6.20;;
6432;SDS011;3249;42.690;23.260;2022-10-26T07:56:36;6.63;;;5.90;;
6432;SDS011;3249;42.690;23.260;2022-10-26T07:59:01;8.77;;;7.00;;
6432;SDS011;3249;42.690;23.260;2022-10-26T08:01:27;7.53;;;6.47;;
6432;SDS011;3249;42.690;23.260;2022-10-26T08:03:52;10.07;;;6.03;;
6432;SDS011;3249;42.690;23.260;2022-10-26T08:06:19;7.10;;;5.90;;
6432;SDS011;3249;42.690;23.260;2022-10-26T08:08:47;7.43;;;5.93;;
6432;SDS011;3249;42.690;23.260;2022-10-26T08:11:13;7.27;;;5.17;;
6432;SDS011;3249;42.690;23.260;2022-10-26T08:13:40;11.13;;;5.50;;
6432;SDS011;3249;42.690;23.260;2022-10-26T08:16:05;7.23;;;5.57;;
6432;SDS011;3249;42.690;23.260;2022-10-26T08:18:31;8.20;;;4.80;;
6432;SDS011;3249;42.690;23.260;2022-10-26T08:21:04;8.03;;;4.77;;
6432;SDS011;3249;42.690;23.260;2022-10-26T08:23:31;7.30;;;4.97;;
6432;SDS011;3249;42.690;23.260;2022-10-26T08:26:00;7.83;;;5.40;;
6432;SDS011;3249;42.690;23.260;2022-10-26T08:28:26;7.60;;;4.87;;
6432;SDS011;3249;42.690;23.260;2022-10-26T08:30:52;5.00;;;4.50;;
6432;SDS011;3249;42.690;23.260;2022-10-26T08:33:18;7.30;;;4.90;;
6432;SDS011;3249;42.690;23.260;2022-10-26T08:35:43;7.03;;;4.73;;
6432;SDS011;3249;42.690;23.260;2022-10-26T08:38:09;4.13;;;3.73;;
6432;SDS011;3249;42.690;23.260;2022-10-26T08:40:35;6.67;;;4.13;;
6432;SDS011;3249;42.690;23.260;2022-10-26T08:43:04;9.50;;;4.37;;
6432;SDS011;3249;42.690;23.260;2022-10-26T08:45:48;6.13;;;4.90;;
6432;SDS011;3249;42.690;23.260;2022-10-26T08:48:20;9.93;;;4.87;;
6432;SDS011;3249;42.690;23.260;2022-10-26T08:50:55;5.73;;;4.10;;
6432;SDS011;3249;42.690;23.260;2022-10-26T08:53:36;5.73;;;4.30;;
6432;SDS011;3249;42.690;23.260;2022-10-26T08:56:20;3.83;;;3.40;;
6432;SDS011;3249;42.690;23.260;2022-10-26T08:58:59;7.37;;;4.00;;
6432;SDS011;3249;42.690;23.260;2022-10-26T09:01:30;4.60;;;3.50;;
6432;SDS011;3249;42.690;23.260;2022-10-26T09:03:56;8.30;;;4.30;;
6432;SDS011;3249;42.690;23.260;2022-10-26T09:06:29;7.10;;;3.70;;
6432;SDS011;3249;42.690;23.260;2022-10-26T09:09:07;6.73;;;3.70;;
6432;SDS011;3249;42.690;23.260;2022-10-26T09:25:57;3.33;;;2.97;;
6432;SDS011;3249;42.690;23.260;2022-10-26T09:28:24;5.33;;;3.33;;
6432;SDS011;3249;42.690;23.260;2022-10-26T09:30:53;7.63;;;3.17;;
6432;SDS011;3249;42.690;23.260;2022-10-26T09:33:23;3.50;;;3.20;;
6432;SDS011;3249;42.690;23.260;2022-10-26T09:35:51;7.30;;;3.70;;
6432;SDS011;3249;42.690;23.260;2022-10-26T09:38:24;3.37;;;3.07;;
6432;SDS011;3249;42.690;23.260;2022-10-26T09:44:01;5.37;;;3.00;;
6432;SDS011;3249;42.690;23.260;2022-10-26T09:46:38;5.13;;;3.10;;
6432;SDS011;3249;42.690;23.260;2022-10-26T09:49:08;6.97;;;3.40;;
6432;SDS011;3249;42.690;23.260;2022-10-26T09:51:38;6.30;;;3.40;;
6432;SDS011;3249;42.690;23.260;2022-10-26T09:54:14;4.43;;;3.43;;
6432;SDS011;3249;42.690;23.260;2022-10-26T09:56:49;7.10;;;3.40;;
6432;SDS011;3249;42.690;23.260;2022-10-26T09:59:19;6.93;;;3.77;;
6432;SDS011;3249;42.690;23.260;2022-10-26T10:01:47;4.33;;;3.90;;
6432;SDS011;3249;42.690;23.260;2022-10-26T10:06:42;5.40;;;3.17;;
6432;SDS011;3249;42.690;23.260;2022-10-26T10:09:15;3.37;;;3.07;;
6432;SDS011;3249;42.690;23.260;2022-10-26T10:14:22;3.33;;;3.03;;
6432;SDS011;3249;42.690;23.260;2022-10-26T10:19:22;4.40;;;3.03;;
6432;SDS011;3249;42.690;23.260;2022-10-26T10:22:08;4.23;;;3.00;;
6432;SDS011;3249;42.690;23.260;2022-10-26T10:24:39;9.30;;;3.07;;
6432;SDS011;3249;42.690;23.260;2022-10-26T10:29:40;2.70;;;2.50;;
6432;SDS011;3249;42.690;23.260;2022-10-26T10:32:14;4.50;;;3.30;;
6432;SDS011;3249;42.690;23.260;2022-10-26T10:34:41;5.13;;;2.77;;
6432;SDS011;3249;42.690;23.260;2022-10-26T10:37:15;3.70;;;2.90;;
6432;SDS011;3249;42.690;23.260;2022-10-26T10:39:46;5.87;;;2.67;;
6432;SDS011;3249;42.690;23.260;2022-10-26T10:42:16;3.23;;;2.60;;
6432;SDS011;3249;42.690;23.260;2022-10-26T10:44:52;7.20;;;2.97;;
6432;SDS011;3249;42.690;23.260;2022-10-26T10:47:26;6.30;;;2.80;;
6432;SDS011;3249;42.690;23.260;2022-10-26T10:49:57;7.30;;;2.90;;
6432;SDS011;3249;42.690;23.260;2022-10-26T10:52:31;4.53;;;2.50;;
6432;SDS011;3249;42.690;23.260;2022-10-26T10:57:54;3.47;;;3.27;;
6432;SDS011;3249;42.690;23.260;2022-10-26T11:00:24;3.47;;;2.90;;
6432;SDS011;3249;42.690;23.260;2022-10-26T11:05:51;3.03;;;2.47;;
6432;SDS011;3249;42.690;23.260;2022-10-26T11:08:43;2.00;;;1.90;;
6432;SDS011;3249;42.690;23.260;2022-10-26T11:11:36;3.33;;;2.27;;
6432;SDS011;3249;42.690;23.260;2022-10-26T11:17:10;1.90;;;1.80;;
6432;SDS011;3249;42.690;23.260;2022-10-26T11:22:28;2.00;;;1.77;;
6432;SDS011;3249;42.690;23.260;2022-10-26T11:25:04;6.53;;;2.40;;
6432;SDS011;3249;42.690;23.260;2022-10-26T11:27:56;2.10;;;1.80;;
6432;SDS011;3249;42.690;23.260;2022-10-26T11:30:48;2.00;;;1.77;;
6432;SDS011;3249;42.690;23.260;2022-10-26T11:33:22;2.27;;;1.70;;
6432;SDS011;3249;42.690;23.260;2022-10-26T11:36:04;1.67;;;1.57;;
6432;SDS011;3249;42.690;23.260;2022-10-26T11:38:38;2.37;;;2.17;;
6432;SDS011;3249;42.690;23.260;2022-10-26T11:41:32;1.90;;;1.80;;
6432;SDS011;3249;42.690;23.260;2022-10-26T11:47:11;2.30;;;1.70;;
6432;SDS011;3249;42.690;23.260;2022-10-26T11:55:33;1.80;;;1.70;;
6432;SDS011;3249;42.690;23.260;2022-10-26T11:57:59;1.70;;;1.60;;
6432;SDS011;3249;42.690;23.260;2022-10-26T12:00:26;1.70;;;1.60;;
6432;SDS011;3249;42.690;23.260;2022-10-26T12:03:00;2.47;;;1.97;;
6432;SDS011;3249;42.690;23.260;2022-10-26T12:05:45;1.93;;;1.83;;
6432;SDS011;3249;42.690;23.260;2022-10-26T12:08:16;1.63;;;1.53;;
6432;SDS011;3249;42.690;23.260;2022-10-26T12:10:49;3.07;;;2.20;;
6432;SDS011;3249;42.690;23.260;2022-10-26T12:18:47;2.10;;;1.50;;
6432;SDS011;3249;42.690;23.260;2022-10-26T12:21:17;2.43;;;1.77;;
6432;SDS011;3249;42.690;23.260;2022-10-26T12:23:59;2.33;;;2.10;;
6432;SDS011;3249;42.690;23.260;2022-10-26T12:34:01;1.77;;;1.67;;
6432;SDS011;3249;42.690;23.260;2022-10-26T12:39:38;1.73;;;1.63;;
6432;SDS011;3249;42.690;23.260;2022-10-26T12:45:15;4.03;;;1.80;;
6432;SDS011;3249;42.690;23.260;2022-10-26T12:49:58;2.73;;;1.80;;
6432;SDS011;3249;42.690;23.260;2022-10-26T12:52:28;1.83;;;1.67;;
6432;SDS011;3249;42.690;23.260;2022-10-26T12:55:06;4.20;;;1.87;;
6432;SDS011;3249;42.690;23.260;2022-10-26T13:03:27;3.50;;;3.30;;
6432;SDS011;3249;42.690;23.260;2022-10-26T13:08:54;2.90;;;2.70;;
6432;SDS011;3249;42.690;23.260;2022-10-26T13:11:29;2.23;;;1.77;;
6432;SDS011;3249;42.690;23.260;2022-10-26T13:13:57;2.13;;;1.87;;
6432;SDS011;3249;42.690;23.260;2022-10-26T13:16:27;2.20;;;1.97;;
6432;SDS011;3249;42.690;23.260;2022-10-26T13:18:54;2.23;;;2.10;;
6432;SDS011;3249;42.690;23.260;2022-10-26T13:21:21;5.97;;;2.60;;
6432;SDS011;3249;42.690;23.260;2022-10-26T13:26:25;2.23;;;2.13;;
6432;SDS011;3249;42.690;23.260;2022-10-26T13:28:53;4.70;;;2.63;;
6432;SDS011;3249;42.690;23.260;2022-10-26T13:33:47;2.50;;;2.20;;
6432;SDS011;3249;42.690;23.260;2022-10-26T13:36:20;6.23;;;2.90;;
6432;SDS011;3249;42.690;23.260;2022-10-26T13:38:59;4.33;;;3.00;;
6432;SDS011;3249;42.690;23.260;2022-10-26T13:41:34;4.00;;;3.40;;
6432;SDS011;3249;42.690;23.260;2022-10-26T13:44:02;4.53;;;2.77;;
6432;SDS011;3249;42.690;23.260;2022-10-26T13:46:31;6.87;;;2.63;;
6432;SDS011;3249;42.690;23.260;2022-10-26T13:49:35;4.70;;;2.37;;
6432;SDS011;3249;42.690;23.260;2022-10-26T13:51:56;2.50;;;2.30;;
6432;SDS011;3249;42.690;23.260;2022-10-26T13:54:37;7.73;;;2.67;;
6432;SDS011;3249;42.690;23.260;2022-10-26T13:59:52;5.00;;;2.80;;
6432;SDS011;3249;42.690;23.260;2022-10-26T14:02:22;3.20;;;2.70;;
6432;SDS011;3249;42.690;23.260;2022-10-26T14:04:53;3.50;;;2.70;;
6432;SDS011;3249;42.690;23.260;2022-10-26T14:07:25;4.97;;;3.00;;
6432;SDS011;3249;42.690;23.260;2022-10-26T14:10:25;3.00;;;2.80;;
6432;SDS011;3249;42.690;23.260;2022-10-26T14:12:53;11.70;;;3.90;;
6432;SDS011;3249;42.690;23.260;2022-10-26T14:15:21;3.00;;;2.80;;
6432;SDS011;3249;42.690;23.260;2022-10-26T14:17:50;8.33;;;3.40;;
6432;SDS011;3249;42.690;23.260;2022-10-26T14:20:17;4.70;;;2.93;;
6432;SDS011;3249;42.690;23.260;2022-10-26T14:22:45;4.30;;;2.80;;
6432;SDS011;3249;42.690;23.260;2022-10-26T14:25:27;8.63;;;3.40;;
6432;SDS011;3249;42.690;23.260;2022-10-26T14:27:55;4.97;;;3.20;;
6432;SDS011;3249;42.690;23.260;2022-10-26T14:32:54;3.83;;;2.67;;
6432;SDS011;3249;42.690;23.260;2022-10-26T14:35:21;7.77;;;3.00;;
6432;SDS011;3249;42.690;23.260;2022-10-26T14:37:53;7.77;;;3.40;;
6432;SDS011;3249;42.690;23.260;2022-10-26T14:40:24;7.60;;;3.30;;
6432;SDS011;3249;42.690;23.260;2022-10-26T14:42:55;6.20;;;3.53;;
6432;SDS011;3249;42.690;23.260;2022-10-26T14:45:24;5.77;;;3.27;;
6432;SDS011;3249;42.690;23.260;2022-10-26T14:47:58;6.03;;;3.23;;
6432;SDS011;3249;42.690;23.260;2022-10-26T14:50:24;5.27;;;3.57;;
6432;SDS011;3249;42.690;23.260;2022-10-26T14:52:59;5.30;;;3.40;;
6432;SDS011;3249;42.690;23.260;2022-10-26T14:55:28;4.50;;;4.10;;
6432;SDS011;3249;42.690;23.260;2022-10-26T14:58:05;4.10;;;3.23;;
6432;SDS011;3249;42.690;23.260;2022-10-26T15:00:38;6.50;;;3.50;;
6432;SDS011;3249;42.690;23.260;2022-10-26T15:03:04;4.77;;;3.47;;
6432;SDS011;3249;42.690;23.260;2022-10-26T15:05:37;3.40;;;3.20;;
6432;SDS011;3249;42.690;23.260;2022-10-26T15:08:03;5.47;;;3.77;;
6432;SDS011;3249;42.690;23.260;2022-10-26T15:16:01;8.93;;;4.83;;
6432;SDS011;3249;42.690;23.260;2022-10-26T15:18:34;7.63;;;4.10;;
6432;SDS011;3249;42.690;23.260;2022-10-26T15:21:01;6.47;;;4.07;;
6432;SDS011;3249;42.690;23.260;2022-10-26T15:23:31;5.90;;;4.03;;
6432;SDS011;3249;42.690;23.260;2022-10-26T15:25:58;15.47;;;3.97;;
6432;SDS011;3249;42.690;23.260;2022-10-26T15:28:37;6.83;;;3.90;;
6432;SDS011;3249;42.690;23.260;2022-10-26T15:33:38;8.60;;;4.33;;
6432;SDS011;3249;42.690;23.260;2022-10-26T15:36:28;12.77;;;5.57;;
6432;SDS011;3249;42.690;23.260;2022-10-26T15:38:54;20.53;;;6.60;;
6432;SDS011;3249;42.690;23.260;2022-10-26T15:41:21;17.40;;;5.90;;
6432;SDS011;3249;42.690;23.260;2022-10-26T15:43:50;10.13;;;4.80;;
6432;SDS011;3249;42.690;23.260;2022-10-26T15:46:17;5.90;;;3.00;;
6432;SDS011;3249;42.690;23.260;2022-10-26T15:48:45;7.00;;;4.97;;
6432;SDS011;3249;42.690;23.260;2022-10-26T15:51:18;9.73;;;4.87;;
6432;SDS011;3249;42.690;23.260;2022-10-26T15:53:44;12.43;;;4.80;;
6432;SDS011;3249;42.690;23.260;2022-10-26T15:56:12;12.67;;;6.37;;
6432;SDS011;3249;42.690;23.260;2022-10-26T15:58:39;10.13;;;6.10;;
6432;SDS011;3249;42.690;23.260;2022-10-26T16:01:07;12.83;;;6.70;;
6432;SDS011;3249;42.690;23.260;2022-10-26T16:03:43;11.97;;;5.23;;
6432;SDS011;3249;42.690;23.260;2022-10-26T16:06:16;8.97;;;5.00;;
6432;SDS011;3249;42.690;23.260;2022-10-26T16:08:53;12.33;;;6.30;;
6432;SDS011;3249;42.690;23.260;2022-10-26T16:11:21;11.23;;;6.40;;
6432;SDS011;3249;42.690;23.260;2022-10-26T16:13:47;20.17;;;9.40;;
6432;SDS011;3249;42.690;23.260;2022-10-26T16:16:13;18.70;;;10.13;;
6432;SDS011;3249;42.690;23.260;2022-10-26T16:18:40;24.27;;;9.93;;
6432;SDS011;3249;42.690;23.260;2022-10-26T16:21:10;14.77;;;10.40;;
6432;SDS011;3249;42.690;23.260;2022-10-26T16:23:36;26.00;;;15.57;;
6432;SDS011;3249;42.690;23.260;2022-10-26T16:26:02;17.83;;;10.97;;
6432;SDS011;3249;42.690;23.260;2022-10-26T16:28:28;13.67;;;8.00;;
6432;SDS011;3249;42.690;23.260;2022-10-26T16:30:58;19.73;;;11.60;;
6432;SDS011;3249;42.690;23.260;2022-10-26T16:33:35;16.50;;;7.73;;
6432;SDS011;3249;42.690;23.260;2022-10-26T16:36:02;24.63;;;13.07;;
6432;SDS011;3249;42.690;23.260;2022-10-26T16:38:29;15.83;;;10.87;;
6432;SDS011;3249;42.690;23.260;2022-10-26T16:43:28;22.77;;;13.63;;
6432;SDS011;3249;42.690;23.260;2022-10-26T16:45:55;24.43;;;9.37;;
6432;SDS011;3249;42.690;23.260;2022-10-26T16:48:21;23.03;;;9.07;;
6432;SDS011;3249;42.690;23.260;2022-10-26T16:50:46;17.30;;;9.93;;
6432;SDS011;3249;42.690;23.260;2022-10-26T16:53:12;19.30;;;9.67;;
6432;SDS011;3249;42.690;23.260;2022-10-26T16:55:40;23.07;;;9.37;;
6432;SDS011;3249;42.690;23.260;2022-10-26T16:58:06;16.40;;;9.37;;
6432;SDS011;3249;42.690;23.260;2022-10-26T17:00:33;12.87;;;9.50;;
6432;SDS011;3249;42.690;23.260;2022-10-26T17:02:59;19.30;;;10.20;;
6432;SDS011;3249;42.690;23.260;2022-10-26T17:05:27;19.53;;;9.10;;
6432;SDS011;3249;42.690;23.260;2022-10-26T17:07:53;28.63;;;9.67;;
6432;SDS011;3249;42.690;23.260;2022-10-26T17:10:18;17.63;;;9.83;;
6432;SDS011;3249;42.690;23.260;2022-10-26T17:12:44;23.07;;;9.80;;
6432;SDS011;3249;42.690;23.260;2022-10-26T17:15:09;14.43;;;7.40;;
6432;SDS011;3249;42.690;23.260;2022-10-26T17:17:35;17.10;;;10.30;;
6432;SDS011;3249;42.690;23.260;2022-10-26T17:20:01;14.63;;;7.97;;
6432;SDS011;3249;42.690;23.260;2022-10-26T17:22:26;13.40;;;7.10;;
6432;SDS011;3249;42.690;23.260;2022-10-26T17:24:52;7.47;;;5.60;;
6432;SDS011;3249;42.690;23.260;2022-10-26T17:27:17;14.93;;;7.53;;
6432;SDS011;3249;42.690;23.260;2022-10-26T17:29:44;13.77;;;6.90;;
6432;SDS011;3249;42.690;23.260;2022-10-26T17:32:09;10.40;;;6.77;;